Time;durP1;ratioP1;P1;durP2;ratioP2;P2;SDS_P1;SDS_P2;PMS_P1;PMS_P2;Temp;Humidity;BMP_temperature;BMP_pressure;BME280_temperature;BME280_humidity;BME280_pressure;Samples;Min_cycle;Max_cycle;Signal;HPM_P1;HPM_P2
2021/03/11 00:00:35;;;;;;;3.22;0.95;;;21.70;34.00;;;;;;5092256;28;20058;-75
2021/03/11 00:03:01;;;;;;;5.75;3.47;;;21.70;34.00;;;;;;5091363;28;20028;-75
2021/03/11 00:05:26;;;;;;;6.90;4.65;;;21.70;34.20;;;;;;5091154;28;20126;-75
2021/03/11 00:07:52;;;;;;;2.95;1.67;;;21.60;34.10;;;;;;5090953;28;20434;-74
2021/03/11 00:10:17;;;;;;;0.45;0.43;;;21.60;34.10;;;;;;5092026;28;20028;-78
2021/03/11 00:12:43;;;;;;;8.15;4.53;;;21.60;34.30;;;;;;5091546;28;20061;-78
2021/03/11 00:15:14;;;;;;;7.20;4.05;;;21.60;34.20;;;;;;5073541;28;20032;-78
2021/03/11 00:17:39;;;;;;;0.77;0.65;;;21.60;34.40;;;;;;5091735;28;20097;-78
2021/03/11 00:20:10;;;;;;;5.28;3.25;;;21.60;34.20;;;;;;5092215;28;20074;-78
2021/03/11 00:22:36;;;;;;;2.72;1.83;;;21.60;34.50;;;;;;5092225;28;20020;-78
2021/03/11 00:25:03;;;;;;;1.13;1.05;;;21.60;34.60;;;;;;5074146;28;20126;-78
2021/03/11 00:27:29;;;;;;;7.30;2.58;;;21.50;35.00;;;;;;5091541;28;20020;-78
2021/03/11 00:29:54;;;;;;;4.65;1.98;;;21.50;34.30;;;;;;5092146;28;20024;-78
2021/03/11 00:32:20;;;;;;;4.63;3.25;;;21.50;34.40;;;;;;5091463;28;20051;-77
2021/03/11 00:34:45;;;;;;;2.83;1.85;;;21.50;34.40;;;;;;5091847;28;20051;-77
2021/03/11 00:37:11;;;;;;;3.80;2.25;;;21.50;34.40;;;;;;5090642;28;20054;-78
2021/03/11 00:39:36;;;;;;;6.55;4.50;;;21.50;34.40;;;;;;5091913;28;20033;-77
2021/03/11 00:42:02;;;;;;;5.15;1.60;;;21.40;34.40;;;;;;5092010;28;20675;-77
2021/03/11 00:44:27;;;;;;;2.92;1.95;;;21.40;34.60;;;;;;5092444;28;20086;-77
2021/03/11 00:46:53;;;;;;;4.28;2.88;;;21.40;34.60;;;;;;5092669;28;20380;-77
2021/03/11 00:49:19;;;;;;;1.38;0.90;;;21.40;34.70;;;;;;5090404;28;20036;-77
2021/03/11 00:51:44;;;;;;;5.78;3.65;;;21.40;34.80;;;;;;5090464;28;20040;-77
2021/03/11 00:54:10;;;;;;;6.22;4.05;;;21.40;34.80;;;;;;5090536;28;20400;-77
2021/03/11 00:56:35;;;;;;;1.55;1.45;;;21.40;34.90;;;;;;5092879;28;20427;-77
2021/03/11 00:59:01;;;;;;;6.90;4.47;;;21.40;35.40;;;;;;5093684;28;20044;-77
2021/03/11 01:01:26;;;;;;;5.53;4.38;;;21.40;34.90;;;;;;5095403;28;20074;-77
2021/03/11 01:03:52;;;;;;;1.05;0.88;;;21.40;34.90;;;;;;5094492;28;20035;-73
2021/03/11 01:06:18;;;;;;;3.88;1.17;;;21.40;35.00;;;;;;5094635;28;20024;-74
2021/03/11 01:08:44;;;;;;;3.20;2.33;;;21.30;34.80;;;;;;5094966;28;20032;-74
2021/03/11 01:11:09;;;;;;;1.08;0.95;;;21.30;34.80;;;;;;5094248;28;20077;-74
2021/03/11 01:13:35;;;;;;;4.20;2.97;;;21.30;34.90;;;;;;5077119;28;20024;-74
2021/03/11 01:16:00;;;;;;;2.67;2.25;;;21.30;34.90;;;;;;5094205;28;20031;-73
2021/03/11 01:18:26;;;;;;;3.97;3.55;;;21.30;34.80;;;;;;5096151;28;20453;-73
2021/03/11 01:20:52;;;;;;;5.38;3.63;;;21.30;35.00;;;;;;5094299;28;20032;-73
2021/03/11 01:23:17;;;;;;;6.00;4.13;;;21.30;35.00;;;;;;5095533;28;20024;-73
2021/03/11 01:25:43;;;;;;;1.98;0.90;;;21.30;34.90;;;;;;5093807;28;20070;-74
2021/03/11 01:28:08;;;;;;;1.63;1.05;;;21.30;34.90;;;;;;5095550;28;20035;-74
2021/03/11 01:30:34;;;;;;;6.90;4.55;;;21.30;34.90;;;;;;5094043;28;20112;-74
2021/03/11 01:33:00;;;;;;;2.58;2.20;;;21.20;34.90;;;;;;5095563;28;20028;-74
2021/03/11 01:35:25;;;;;;;6.53;4.90;;;21.30;35.00;;;;;;5095376;28;20020;-74
2021/03/11 01:37:51;;;;;;;0.80;0.73;;;21.30;35.00;;;;;;5094216;28;20119;-74
2021/03/11 01:40:17;;;;;;;3.65;2.15;;;21.20;34.90;;;;;;5094983;28;20028;-74
2021/03/11 01:42:42;;;;;;;1.95;1.50;;;21.20;35.00;;;;;;5094980;28;20122;-74
2021/03/11 01:45:08;;;;;;;8.90;4.80;;;21.20;35.00;;;;;;5094316;28;20107;-74
2021/03/11 01:47:37;;;;;;;5.32;3.33;;;21.20;35.00;;;;;;5094199;28;20041;-76
2021/03/11 01:50:06;;;;;;;1.20;1.08;;;21.20;35.10;;;;;;5095306;28;20058;-76
2021/03/11 01:52:33;;;;;;;7.72;4.70;;;21.30;35.20;;;;;;5093478;28;20036;-77
2021/03/11 01:54:58;;;;;;;2.05;0.68;;;21.20;35.20;;;;;;5093470;28;20086;-72
2021/03/11 01:57:24;;;;;;;6.35;4.28;;;21.20;35.20;;;;;;5092032;28;20407;-72
2021/03/11 01:59:50;;;;;;;5.93;3.70;;;21.30;35.20;;;;;;5098886;28;20016;-72
2021/03/11 02:02:17;;;;;;;2.22;1.33;;;21.20;35.40;;;;;;5093201;28;20036;-72
2021/03/11 02:04:42;;;;;;;6.00;3.78;;;21.30;35.40;;;;;;5076470;28;20020;-72
2021/03/11 02:07:08;;;;;;;8.85;5.88;;;21.20;36.00;;;;;;5060040;28;20434;-72
2021/03/11 02:09:34;;;;;;;8.55;5.03;;;21.20;35.40;;;;;;5076076;28;20074;-72
2021/03/11 02:12:14;;;;;;;10.48;6.30;;;21.20;35.50;;;;;;5092933;28;20032;-72
2021/03/11 02:15:07;;;;;;;8.00;4.57;;;21.20;35.60;;;;;;5093221;28;20017;-72
2021/03/11 02:17:42;;;;;;;4.88;2.55;;;21.20;35.70;;;;;;5061147;28;20411;-72
2021/03/11 02:20:29;;;;;;;2.05;1.17;;;21.20;35.70;;;;;;5076752;28;20582;-77
2021/03/11 02:23:30;;;;;;;9.98;6.85;;;21.20;35.70;;;;;;5090226;28;20514;-77
2021/03/11 02:26:24;;;;;;;6.90;1.88;;;21.10;35.80;;;;;;5092950;28;20063;-77
2021/03/11 02:29:02;;;;;;;8.15;4.95;;;21.10;35.90;;;;;;5093792;28;20029;-72
2021/03/11 02:31:28;;;;;;;6.50;4.70;;;21.10;35.90;;;;;;5093079;28;20051;-72
2021/03/11 02:33:53;;;;;;;9.48;5.78;;;21.00;36.70;;;;;;5092747;28;20067;-76
2021/03/11 02:36:20;;;;;;;8.73;5.68;;;21.10;36.10;;;;;;5075610;28;20448;-76
2021/03/11 02:38:45;;;;;;;9.68;6.57;;;21.00;36.10;;;;;;5059707;28;20056;-76
2021/03/11 02:41:11;;;;;;;5.10;3.35;;;21.00;36.20;;;;;;5075078;28;20043;-76
2021/03/11 02:43:36;;;;;;;6.70;4.78;;;21.00;36.10;;;;;;5076288;28;20396;-76
2021/03/11 02:46:02;;;;;;;9.25;4.72;;;21.00;36.10;;;;;;5076502;28;20087;-76
2021/03/11 02:48:27;;;;;;;5.90;3.20;;;21.10;36.20;;;;;;5094046;28;20031;-76
2021/03/11 02:50:53;;;;;;;4.05;2.72;;;21.10;36.20;;;;;;5092890;28;20028;-75
2021/03/11 02:53:18;;;;;;;0.52;0.52;;;21.10;36.20;;;;;;5071952;28;20116;-76
2021/03/11 02:55:44;;;;;;;6.65;3.85;;;21.10;36.30;;;;;;5088720;28;20036;-77
2021/03/11 02:58:13;;;;;;;1.40;0.77;;;21.00;36.20;;;;;;5076083;28;20504;-76
2021/03/11 03:00:39;;;;;;;2.60;1.20;;;21.00;36.20;;;;;;5074901;28;20031;-76
2021/03/11 03:03:06;;;;;;;4.70;2.60;;;21.00;36.30;;;;;;5075345;28;20024;-76
2021/03/11 03:05:35;;;;;;;10.30;6.22;;;21.00;36.40;;;;;;5103184;28;20103;-77
2021/03/11 03:08:00;;;;;;;8.55;5.65;;;21.00;36.40;;;;;;5059183;28;20077;-77
2021/03/11 03:10:28;;;;;;;3.28;1.48;;;21.00;36.50;;;;;;5075010;28;20035;-77
2021/03/11 03:12:55;;;;;;;2.50;1.85;;;20.90;36.40;;;;;;5091323;28;20036;-76
2021/03/11 03:15:21;;;;;;;2.47;1.98;;;21.00;36.40;;;;;;5084296;28;20023;-76
2021/03/11 03:17:47;;;;;;;4.28;2.58;;;21.00;36.40;;;;;;5086979;28;20037;-77
2021/03/11 03:20:13;;;;;;;1.75;1.05;;;21.00;36.50;;;;;;5072820;28;20414;-76
2021/03/11 03:22:39;;;;;;;7.13;3.35;;;21.00;36.40;;;;;;5091553;28;20027;-75
2021/03/11 03:25:09;;;;;;;0.82;0.68;;;21.00;36.50;;;;;;5092346;28;20428;-76
2021/03/11 03:27:35;;;;;;;7.32;5.65;;;21.00;36.50;;;;;;5091732;28;20028;-76
2021/03/11 03:30:04;;;;;;;1.27;0.82;;;20.90;36.60;;;;;;5091528;28;20055;-77
2021/03/11 03:32:29;;;;;;;7.70;5.30;;;21.00;36.50;;;;;;5078595;28;20032;-76
2021/03/11 03:34:55;;;;;;;4.90;3.40;;;21.00;36.50;;;;;;5093101;28;20040;-77
2021/03/11 03:37:20;;;;;;;1.38;0.85;;;21.00;36.60;;;;;;5093365;28;20024;-77
2021/03/11 03:39:46;;;;;;;3.33;2.20;;;21.00;36.50;;;;;;5092774;28;20474;-77
2021/03/11 03:42:27;;;;;;;1.50;1.38;;;20.90;37.20;;;;;;5092503;28;20027;-77
2021/03/11 03:44:53;;;;;;;4.57;2.83;;;20.90;36.50;;;;;;5075063;28;20016;-77
2021/03/11 03:47:18;;;;;;;1.60;1.25;;;20.90;36.60;;;;;;5091379;28;20062;-76
2021/03/11 03:49:44;;;;;;;7.85;5.10;;;20.90;36.80;;;;;;5074736;28;20040;-77
2021/03/11 03:52:10;;;;;;;1.20;1.10;;;20.90;36.80;;;;;;5074724;28;20074;-75
2021/03/11 03:54:40;;;;;;;3.53;1.90;;;20.90;36.80;;;;;;5091066;28;20034;-73
2021/03/11 03:57:21;;;;;;;2.33;1.52;;;20.90;36.90;;;;;;5091426;28;20066;-72
2021/03/11 03:59:48;;;;;;;1.88;1.65;;;20.90;36.80;;;;;;5091626;28;20027;-72
2021/03/11 04:02:14;;;;;;;4.70;2.05;;;20.90;36.80;;;;;;5073922;28;20043;-74
2021/03/11 04:04:41;;;;;;;2.78;2.15;;;20.90;36.90;;;;;;5074500;28;20028;-75
2021/03/11 04:07:13;;;;;;;5.97;2.78;;;20.80;37.00;;;;;;5074835;28;20089;-75
2021/03/11 04:09:39;;;;;;;6.05;3.72;;;20.80;37.00;;;;;;5074342;28;20023;-73
2021/03/11 04:12:06;;;;;;;2.97;1.67;;;20.80;37.20;;;;;;5090942;28;20522;-72
2021/03/11 04:14:31;;;;;;;1.15;0.88;;;20.80;37.10;;;;;;5090298;28;20024;-72
2021/03/11 04:16:57;;;;;;;5.95;3.90;;;20.80;37.30;;;;;;5091713;28;20084;-72
2021/03/11 04:19:23;;;;;;;8.00;5.47;;;20.80;37.20;;;;;;5090907;28;20059;-72
2021/03/11 04:21:49;;;;;;;4.88;3.47;;;20.80;37.30;;;;;;5091481;28;20024;-72
2021/03/11 04:24:14;;;;;;;3.50;2.58;;;20.80;37.30;;;;;;5091626;28;20027;-72
2021/03/11 04:26:40;;;;;;;4.60;1.40;;;20.80;37.30;;;;;;5074208;28;20165;-72
2021/03/11 04:29:06;;;;;;;2.55;2.00;;;20.80;37.40;;;;;;5092596;28;20024;-73
2021/03/11 04:31:32;;;;;;;6.45;4.45;;;20.80;37.40;;;;;;5093722;28;20097;-73
2021/03/11 04:33:58;;;;;;;2.55;1.33;;;20.80;37.40;;;;;;5116121;28;20098;-73
2021/03/11 04:36:24;;;;;;;1.02;0.90;;;20.80;37.30;;;;;;5089191;28;20035;-73
2021/03/11 04:38:50;;;;;;;5.30;4.25;;;20.80;37.40;;;;;;5078486;28;20024;-73
2021/03/11 04:41:15;;;;;;;2.22;1.52;;;20.80;37.30;;;;;;5096255;28;20050;-73
2021/03/11 04:43:41;;;;;;;2.13;1.75;;;20.80;37.40;;;;;;5095287;28;20081;-73
2021/03/11 04:46:07;;;;;;;1.63;1.33;;;20.80;37.60;;;;;;5077995;28;20028;-73
2021/03/11 04:48:38;;;;;;;3.10;2.00;;;20.80;37.70;;;;;;5077774;28;20019;-73
2021/03/11 04:51:04;;;;;;;2.05;1.45;;;20.80;37.80;;;;;;5094893;28;20064;-74
2021/03/11 04:53:30;;;;;;;5.43;2.33;;;20.70;37.70;;;;;;5095175;28;20468;-72
2021/03/11 04:55:56;;;;;;;3.28;2.20;;;20.80;37.70;;;;;;5094981;28;20028;-74
2021/03/11 04:58:21;;;;;;;4.35;2.15;;;20.80;38.00;;;;;;5094170;28;20024;-73
2021/03/11 05:00:48;;;;;;;1.13;0.73;;;20.70;38.10;;;;;;5095125;28;20404;-73
2021/03/11 05:03:14;;;;;;;2.25;1.40;;;20.70;38.20;;;;;;5094483;28;20020;-74
2021/03/11 05:05:46;;;;;;;0.82;0.57;;;20.70;38.20;;;;;;5095232;28;20023;-74
2021/03/11 05:08:12;;;;;;;1.73;1.15;;;20.70;38.30;;;;;;5093859;28;20073;-73
2021/03/11 05:10:38;;;;;;;1.15;1.05;;;20.80;38.40;;;;;;5095734;28;20036;-72
2021/03/11 05:13:03;;;;;;;1.10;0.75;;;20.90;38.10;;;;;;5092984;28;20047;-72
2021/03/11 05:15:29;;;;;;;2.22;0.80;;;20.90;38.10;;;;;;5097635;28;20032;-72
2021/03/11 05:17:55;;;;;;;3.42;1.27;;;21.00;38.10;;;;;;5093667;28;20036;-72
2021/03/11 05:20:20;;;;;;;1.20;0.90;;;21.10;38.00;;;;;;5076868;28;20111;-72
2021/03/11 05:22:46;;;;;;;1.65;0.68;;;21.20;37.80;;;;;;5076625;28;20028;-72
2021/03/11 05:25:12;;;;;;;1.13;0.70;;;21.30;38.00;;;;;;5094058;28;20472;-72
2021/03/11 05:27:38;;;;;;;2.58;1.25;;;21.30;37.70;;;;;;5096038;28;20112;-72
2021/03/11 05:30:07;;;;;;;1.55;0.88;;;21.40;38.10;;;;;;5093704;28;20031;-73
2021/03/11 05:32:33;;;;;;;1.52;0.90;;;21.50;37.70;;;;;;5093932;28;20028;-72
2021/03/11 05:34:59;;;;;;;7.72;0.60;;;21.60;37.60;;;;;;5093837;28;20427;-72
2021/03/11 05:37:28;;;;;;;0.60;0.60;;;21.60;37.30;;;;;;5093431;28;20519;-73
2021/03/11 05:39:53;;;;;;;0.93;0.40;;;21.70;37.40;;;;;;5093613;28;20032;-72
2021/03/11 05:42:19;;;;;;;1.00;0.60;;;21.80;37.10;;;;;;5095011;28;20027;-73
2021/03/11 05:44:45;;;;;;;2.05;0.88;;;21.80;37.00;;;;;;5092275;28;20044;-73
2021/03/11 05:47:14;;;;;;;1.52;0.88;;;21.80;37.20;;;;;;5094853;28;20543;-73
2021/03/11 05:49:40;;;;;;;1.05;0.70;;;21.90;37.30;;;;;;5093709;28;20063;-73
2021/03/11 05:52:08;;;;;;;0.68;0.40;;;21.90;37.50;;;;;;5093288;28;20039;-72
2021/03/11 05:54:34;;;;;;;2.72;0.88;;;21.90;37.10;;;;;;5093494;28;20032;-72
2021/03/11 05:57:03;;;;;;;1.88;0.50;;;22.00;37.40;;;;;;5093388;28;20457;-72
2021/03/11 05:59:29;;;;;;;1.75;0.57;;;22.00;37.10;;;;;;5092331;28;20036;-72
2021/03/11 06:01:55;;;;;;;1.05;0.75;;;22.00;37.10;;;;;;5092863;28;20982;-72
2021/03/11 06:04:21;;;;;;;0.75;0.50;;;22.00;37.00;;;;;;5078613;28;20105;-73
2021/03/11 06:06:46;;;;;;;4.70;0.50;;;22.00;37.30;;;;;;5076306;28;20082;-72
2021/03/11 06:09:12;;;;;;;1.35;1.10;;;22.00;37.40;;;;;;5075746;28;20415;-72
2021/03/11 06:11:38;;;;;;;1.90;0.60;;;22.00;37.60;;;;;;5093029;28;20028;-72
2021/03/11 06:14:04;;;;;;;1.00;0.73;;;22.00;37.70;;;;;;5093317;28;20483;-72
2021/03/11 06:16:31;;;;;;;0.73;0.50;;;22.00;37.60;;;;;;5075859;28;20031;-72
2021/03/11 06:18:57;;;;;;;0.90;0.60;;;22.00;37.70;;;;;;5075697;28;20109;-73
2021/03/11 06:21:23;;;;;;;1.00;0.52;;;22.00;37.80;;;;;;5092950;28;20491;-72
2021/03/11 06:23:48;;;;;;;1.52;0.70;;;22.00;38.20;;;;;;5092579;28;20503;-73
2021/03/11 06:26:14;;;;;;;3.72;0.88;;;21.90;38.40;;;;;;5094062;28;20051;-73
2021/03/11 06:28:45;;;;;;;0.68;0.32;;;22.00;38.50;;;;;;5094239;28;20020;-72
2021/03/11 06:31:30;;;;;;;0.52;0.20;;;21.90;38.40;;;;;;5093619;28;20036;-72
2021/03/11 06:33:57;;;;;;;1.23;0.80;;;22.00;38.30;;;;;;5094123;28;20438;-72
2021/03/11 06:36:24;;;;;;;0.20;0.10;;;22.00;38.40;;;;;;5059046;28;20060;-72
2021/03/11 06:38:50;;;;;;;0.52;0.30;;;22.00;38.30;;;;;;5076446;28;20111;-74
2021/03/11 06:41:15;;;;;;;0.28;0.20;;;22.00;38.50;;;;;;5075601;28;20102;-72
2021/03/11 06:43:52;;;;;;;0.80;0.43;;;22.00;39.40;;;;;;5093222;28;20028;-73
2021/03/11 06:46:17;;;;;;;1.17;0.40;;;22.00;38.50;;;;;;5092874;28;20016;-72
2021/03/11 06:48:49;;;;;;;1.42;0.40;;;22.00;38.50;;;;;;5090558;28;20406;-73
2021/03/11 06:51:19;;;;;;;0.80;0.60;;;22.00;38.50;;;;;;5078329;28;20070;-76
2021/03/11 06:54:03;;;;;;;0.52;0.38;;;21.90;38.70;;;;;;5095138;28;20479;-76
2021/03/11 06:56:28;;;;;;;2.55;0.50;;;21.90;38.80;;;;;;5067836;28;20099;-76
2021/03/11 06:59:14;;;;;;;1.52;0.77;;;21.90;39.00;;;;;;5075631;28;20447;-77
2021/03/11 07:01:58;;;;;;;1.58;0.60;;;21.90;39.00;;;;;;5097011;28;20032;-75
2021/03/11 07:04:23;;;;;;;1.23;0.75;;;21.80;38.90;;;;;;5082562;28;20499;-74
2021/03/11 07:06:49;;;;;;;0.30;0.30;;;21.90;39.10;;;;;;5090650;28;20113;-75
2021/03/11 07:09:14;;;;;;;0.73;0.35;;;21.80;39.00;;;;;;5093279;28;20403;-75
2021/03/11 07:12:07;;;;;;;3.03;0.30;;;21.80;39.00;;;;;;5092559;28;20165;-74
2021/03/11 07:14:32;;;;;;;2.15;0.60;;;21.80;38.90;;;;;;5088152;28;20044;-75
2021/03/11 07:17:19;;;;;;;1.48;0.52;;;21.80;38.80;;;;;;5092399;28;20032;-75
2021/03/11 07:20:07;;;;;;;1.20;0.30;;;21.80;39.00;;;;;;5092247;28;20403;-74
2021/03/11 07:22:33;;;;;;;0.40;0.40;;;21.80;38.90;;;;;;5090006;28;20518;-76
2021/03/11 07:24:59;;;;;;;0.25;0.20;;;21.70;38.80;;;;;;5091535;28;20433;-76
2021/03/11 07:27:24;;;;;;;2.53;0.40;;;21.70;38.70;;;;;;5091328;28;20040;-76
2021/03/11 07:30:03;;;;;;;0.47;0.32;;;21.70;38.60;;;;;;5092008;28;20020;-76
2021/03/11 07:32:29;;;;;;;1.20;0.40;;;21.70;38.70;;;;;;5091197;28;20395;-76
2021/03/11 07:34:55;;;;;;;3.50;0.30;;;21.70;38.60;;;;;;5087928;28;20047;-76
2021/03/11 07:37:20;;;;;;;2.35;0.43;;;21.70;38.60;;;;;;5074903;28;20044;-73
2021/03/11 07:39:46;;;;;;;1.98;0.70;;;21.70;38.50;;;;;;5074934;28;20449;-73
2021/03/11 07:42:11;;;;;;;1.42;0.47;;;21.70;38.60;;;;;;5071071;28;20109;-73
2021/03/11 07:44:37;;;;;;;4.13;0.50;;;21.60;38.70;;;;;;5093100;28;20479;-73
2021/03/11 07:47:04;;;;;;;0.88;0.30;;;21.60;38.70;;;;;;5091689;28;20017;-73
2021/03/11 07:49:29;;;;;;;3.50;0.50;;;21.50;38.70;;;;;;5091578;28;20035;-73
2021/03/11 07:51:56;;;;;;;1.17;0.45;;;21.60;38.70;;;;;;5090843;28;20032;-71
2021/03/11 07:54:22;;;;;;;1.80;0.28;;;21.60;38.70;;;;;;5099926;28;20479;-72
2021/03/11 07:56:48;;;;;;;1.20;0.38;;;21.60;39.30;;;;;;5091948;28;20024;-72
2021/03/11 07:59:14;;;;;;;0.95;0.47;;;21.60;38.60;;;;;;5101826;28;20119;-72
2021/03/11 08:01:59;;;;;;;3.38;0.57;;;21.60;38.50;;;;;;5092334;28;20048;-72
2021/03/11 08:04:30;;;;;;;4.47;0.77;;;21.60;38.40;;;;;;5074731;28;20020;-72
2021/03/11 08:07:15;;;;;;;5.00;1.00;;;21.60;38.40;;;;;;5054573;28;20040;-72
2021/03/11 08:09:41;;;;;;;2.28;0.63;;;21.60;38.30;;;;;;5092842;28;20024;-72
2021/03/11 08:12:29;;;;;;;5.28;0.82;;;21.60;38.30;;;;;;5095184;28;20492;-73
2021/03/11 08:14:55;;;;;;;4.22;0.38;;;21.60;38.30;;;;;;5085995;28;20066;-72
2021/03/11 08:17:33;;;;;;;0.65;0.40;;;21.70;38.20;;;;;;5072814;28;20032;-72
2021/03/11 08:19:59;;;;;;;1.05;0.47;;;21.70;38.10;;;;;;5089064;28;20563;-72
2021/03/11 08:22:53;;;;;;;4.53;0.73;;;21.70;38.00;;;;;;5092586;28;20103;-73
2021/03/11 08:25:34;;;;;;;4.65;0.50;;;21.60;37.90;;;;;;5091574;28;20024;-73
2021/03/11 08:28:01;;;;;;;1.58;0.50;;;21.70;37.90;;;;;;5091829;28;20510;-73
2021/03/11 08:30:39;;;;;;;1.23;0.60;;;21.60;37.90;;;;;;5092008;28;20024;-72
2021/03/11 08:33:14;;;;;;;4.65;0.88;;;21.70;37.90;;;;;;5092088;28;20032;-73
2021/03/11 08:35:40;;;;;;;3.70;0.70;;;21.70;37.80;;;;;;5074527;28;20518;-72
2021/03/11 08:38:22;;;;;;;1.88;0.50;;;21.70;37.90;;;;;;5074106;28;20514;-73
2021/03/11 08:40:57;;;;;;;0.80;0.30;;;21.70;38.00;;;;;;5091743;28;20043;-72
2021/03/11 08:43:35;;;;;;;;;;;21.70;38.00;;;;;;5090233;28;20031;-72
2021/03/11 08:46:10;;;;;;;4.78;1.15;;;21.70;37.90;;;;;;5079879;28;19907;-72
2021/03/11 08:48:58;;;;;;;1.02;0.60;;;21.70;37.90;;;;;;5091752;28;20032;-72
2021/03/11 08:51:23;;;;;;;2.05;0.70;;;21.70;37.90;;;;;;5090910;28;20040;-72
2021/03/11 08:53:55;;;;;;;5.65;0.80;;;21.80;38.10;;;;;;5091932;28;20025;-72
2021/03/11 08:56:21;;;;;;;3.33;0.60;;;21.70;37.90;;;;;;5090894;28;20023;-72
2021/03/11 08:58:59;;;;;;;4.35;1.23;;;21.70;38.00;;;;;;5092132;28;20403;-72
2021/03/11 09:01:46;;;;;;;6.22;0.90;;;21.80;38.10;;;;;;5090868;28;20024;-72
2021/03/11 09:04:23;;;;;;;1.90;0.75;;;21.80;38.10;;;;;;5091618;28;20390;-75
2021/03/11 09:06:52;;;;;;;1.58;0.50;;;21.90;38.00;;;;;;5092796;28;20029;-75
2021/03/11 09:09:38;;;;;;;1.08;0.57;;;21.90;37.90;;;;;;5090948;28;20024;-73
2021/03/11 09:12:08;;;;;;;1.77;0.70;;;21.80;38.10;;;;;;5088353;28;20407;-73
2021/03/11 09:14:34;;;;;;;3.80;1.10;;;21.90;38.10;;;;;;5092308;28;20035;-73
2021/03/11 09:17:08;;;;;;;3.20;0.80;;;21.80;38.20;;;;;;5089983;28;20020;-75
2021/03/11 09:19:44;;;;;;;3.15;0.70;;;21.80;37.90;;;;;;5092138;28;20043;-75
2021/03/11 09:22:25;;;;;;;1.70;0.40;;;21.90;37.70;;;;;;5093147;28;20044;-76
2021/03/11 09:25:15;;;;;;;4.82;1.10;;;21.90;37.80;;;;;;5092915;28;20032;-73
2021/03/11 09:27:56;;;;;;;1.40;0.40;;;21.90;37.80;;;;;;5093339;28;20032;-73
2021/03/11 09:30:38;;;;;;;3.30;0.98;;;21.90;37.50;;;;;;5077832;28;20040;-74
2021/03/11 09:33:14;;;;;;;1.98;0.57;;;21.90;37.30;;;;;;5093361;28;20024;-76
2021/03/11 09:35:39;;;;;;;4.00;0.85;;;21.90;37.40;;;;;;5060387;28;20070;-74
2021/03/11 09:38:06;;;;;;;2.33;0.82;;;21.80;37.20;;;;;;5094159;28;20024;-75
2021/03/11 09:40:58;;;;;;;5.70;1.17;;;21.90;37.30;;;;;;5074471;28;20051;-73
2021/03/11 09:43:32;;;;;;;4.75;1.05;;;22.00;37.50;;;;;;5089109;28;20133;-73
2021/03/11 09:45:58;;;;;;;3.42;0.68;;;22.00;37.20;;;;;;5093744;28;20028;-74
2021/03/11 09:48:31;;;;;;;3.53;0.90;;;22.10;37.00;;;;;;5091565;28;20032;-74
2021/03/11 09:51:19;;;;;;;3.33;1.20;;;22.10;36.90;;;;;;5092336;28;20052;-74
2021/03/11 09:53:56;;;;;;;5.95;0.90;;;22.00;36.60;;;;;;5088353;28;20035;-73
2021/03/11 09:56:23;;;;;;;4.10;0.77;;;22.00;36.50;;;;;;5092429;28;20059;-73
2021/03/11 09:58:49;;;;;;;6.22;1.17;;;22.00;36.20;;;;;;5083463;28;20028;-72
2021/03/11 10:01:25;;;;;;;3.80;0.73;;;22.10;36.20;;;;;;5091872;28;20115;-73
2021/03/11 10:03:50;;;;;;;6.47;1.10;;;22.20;36.20;;;;;;5091070;28;20440;-73
2021/03/11 10:06:16;;;;;;;2.28;0.88;;;22.30;36.10;;;;;;5091201;28;20108;-74
2021/03/11 10:08:42;;;;;;;3.45;1.23;;;22.40;36.00;;;;;;5094490;28;20149;-73
2021/03/11 10:11:18;;;;;;;7.05;0.70;;;22.40;35.50;;;;;;5091420;28;20020;-73
2021/03/11 10:13:47;;;;;;;9.05;1.30;;;22.50;35.70;;;;;;5102665;28;20069;-73
2021/03/11 10:16:13;;;;;;;6.22;1.42;;;22.50;36.00;;;;;;5074768;28;20031;-73
2021/03/11 10:18:58;;;;;;;10.13;1.48;;;22.50;35.00;;;;;;5075983;28;20031;-73
2021/03/11 10:21:24;;;;;;;6.15;1.15;;;22.50;34.80;;;;;;5096634;28;20107;-73
2021/03/11 10:23:50;;;;;;;2.42;1.05;;;22.40;34.60;;;;;;5091191;28;20170;-73
2021/03/11 10:26:18;;;;;;;7.47;2.10;;;22.40;34.60;;;;;;5089090;28;20099;-74
2021/03/11 10:28:44;;;;;;;5.35;1.45;;;22.50;34.70;;;;;;5095161;28;20024;-75
2021/03/11 10:31:10;;;;;;;5.03;1.20;;;22.50;34.80;;;;;;5095059;28;20133;-75
2021/03/11 10:34:05;;;;;;;7.60;1.25;;;22.50;34.80;;;;;;5087209;28;20036;-76
2021/03/11 10:36:30;;;;;;;6.47;0.95;;;22.50;34.70;;;;;;5080221;28;20443;-76
2021/03/11 10:39:07;;;;;;;6.68;1.40;;;22.50;34.90;;;;;;5054404;28;20029;-76
2021/03/11 10:41:33;;;;;;;1.90;0.90;;;22.60;34.90;;;;;;5072950;28;20025;-76
2021/03/11 10:44:12;;;;;;;2.97;0.88;;;22.60;35.50;;;;;;5073660;28;20150;-77
2021/03/11 10:46:38;;;;;;;5.63;1.30;;;22.60;34.90;;;;;;5072572;28;20027;-76
2021/03/11 10:49:03;;;;;;;6.82;1.92;;;22.70;34.80;;;;;;5073272;28;20021;-75
2021/03/11 10:51:31;;;;;;;6.90;1.10;;;22.70;34.50;;;;;;5071994;28;20419;-75
2021/03/11 10:53:59;;;;;;;5.72;1.00;;;22.70;34.60;;;;;;5057172;28;20093;-76
2021/03/11 10:56:25;;;;;;;7.00;1.63;;;22.70;34.70;;;;;;5054648;28;20127;-76
2021/03/11 10:58:59;;;;;;;3.20;1.30;;;22.70;34.60;;;;;;5070964;28;20020;-75
2021/03/11 11:01:30;;;;;;;4.10;0.93;;;22.70;34.10;;;;;;5069771;28;20098;-75
2021/03/11 11:03:56;;;;;;;4.15;1.35;;;22.70;34.40;;;;;;5071366;28;20030;-72
2021/03/11 11:06:23;;;;;;;6.22;1.00;;;22.90;34.30;;;;;;5072311;28;20028;-73
2021/03/11 11:08:55;;;;;;;4.60;1.02;;;22.90;34.40;;;;;;5055226;28;20028;-72
2021/03/11 11:11:20;;;;;;;4.53;0.75;;;22.90;34.30;;;;;;5070365;28;20389;-72
2021/03/11 11:13:46;;;;;;;4.30;1.00;;;22.90;34.40;;;;;;5072570;28;20108;-72
2021/03/11 11:16:12;;;;;;;4.38;0.95;;;22.90;33.80;;;;;;5054512;28;20016;-72
2021/03/11 11:18:38;;;;;;;2.72;0.75;;;23.00;33.90;;;;;;5081393;28;20119;-72
2021/03/11 11:21:04;;;;;;;1.58;0.90;;;23.00;34.00;;;;;;5055272;28;20520;-72
2021/03/11 11:23:31;;;;;;;3.65;0.80;;;23.10;33.60;;;;;;5073151;28;20032;-72
2021/03/11 11:25:56;;;;;;;4.50;0.65;;;23.10;33.80;;;;;;5072186;28;20383;-72
2021/03/11 11:28:22;;;;;;;8.10;1.02;;;23.20;33.80;;;;;;5071287;28;20071;-75
2021/03/11 11:30:47;;;;;;;5.05;1.20;;;23.20;33.50;;;;;;5070953;28;20028;-74
2021/03/11 11:33:13;;;;;;;2.88;0.90;;;23.20;33.50;;;;;;5074153;28;20196;-75
2021/03/11 11:35:39;;;;;;;2.67;0.93;;;23.20;33.30;;;;;;5086302;28;20066;-75
2021/03/11 11:38:04;;;;;;;3.85;1.20;;;23.30;33.40;;;;;;5077012;28;20032;-75
2021/03/11 11:40:31;;;;;;;10.20;1.30;;;23.30;33.30;;;;;;5087057;28;20504;-75
2021/03/11 11:43:00;;;;;;;3.47;0.90;;;23.30;33.40;;;;;;5075026;28;20020;-75
2021/03/11 11:45:25;;;;;;;6.50;0.60;;;23.30;33.00;;;;;;5073565;28;20566;-75
2021/03/11 11:47:57;;;;;;;0.65;0.45;;;23.30;33.00;;;;;;5092110;28;20146;-74
2021/03/11 11:50:25;;;;;;;2.92;0.98;;;23.20;32.70;;;;;;5090858;28;20098;-75
2021/03/11 11:52:51;;;;;;;4.35;1.00;;;23.30;32.90;;;;;;5090830;28;20093;-75
2021/03/11 11:55:17;;;;;;;5.47;0.95;;;23.40;33.00;;;;;;5091754;28;20399;-74
2021/03/11 11:57:42;;;;;;;2.60;0.30;;;23.40;32.60;;;;;;5092489;28;20039;-75
2021/03/11 12:00:13;;;;;;;1.17;0.30;;;23.40;32.40;;;;;;5090920;28;20040;-75
2021/03/11 12:02:39;;;;;;;0.75;0.43;;;23.50;32.60;;;;;;5091435;28;20060;-75
2021/03/11 12:05:05;;;;;;;1.40;0.30;;;23.50;32.30;;;;;;5089844;28;20123;-75
2021/03/11 12:07:31;;;;;;;0.88;0.65;;;23.60;32.50;;;;;;5090723;28;20043;-75
2021/03/11 12:09:58;;;;;;;4.63;0.88;;;23.60;32.40;;;;;;5090488;28;20016;-75
2021/03/11 12:12:24;;;;;;;6.47;0.80;;;23.60;31.80;;;;;;5083457;28;20035;-74
2021/03/11 12:14:49;;;;;;;3.92;1.10;;;23.60;31.80;;;;;;5089298;28;20498;-75
2021/03/11 12:17:15;;;;;;;3.10;0.65;;;23.60;32.00;;;;;;5092269;28;20031;-73
2021/03/11 12:19:40;;;;;;;5.00;0.40;;;23.60;31.90;;;;;;5089913;28;20032;-76
2021/03/11 12:22:06;;;;;;;7.65;1.08;;;23.60;32.20;;;;;;5091522;28;20113;-75
2021/03/11 12:24:31;;;;;;;4.68;1.25;;;23.70;32.10;;;;;;5099613;28;20060;-76
2021/03/11 12:26:57;;;;;;;3.08;0.60;;;23.60;31.10;;;;;;5090830;28;20426;-77
2021/03/11 12:29:23;;;;;;;5.20;0.95;;;23.60;31.50;;;;;;5090415;28;20020;-76
2021/03/11 12:31:48;;;;;;;1.08;0.30;;;23.70;31.80;;;;;;5076511;28;20073;-78
2021/03/11 12:34:14;;;;;;;1.95;0.15;;;23.70;31.50;;;;;;5091847;28;20471;-77
2021/03/11 12:36:49;;;;;;;2.30;0.60;;;23.80;31.70;;;;;;5090320;28;20098;-76
2021/03/11 12:39:15;;;;;;;2.95;0.70;;;23.80;31.80;;;;;;5092583;28;20028;-77
2021/03/11 12:41:40;;;;;;;5.53;0.50;;;23.80;31.60;;;;;;5091455;28;20030;-78
2021/03/11 12:44:06;;;;;;;1.38;0.30;;;23.90;31.10;;;;;;5090636;28;20458;-72
2021/03/11 12:46:32;;;;;;;2.83;0.40;;;23.80;31.20;;;;;;5092246;28;20104;-72
2021/03/11 12:48:57;;;;;;;3.30;0.68;;;23.90;31.30;;;;;;5091366;28;20420;-72
2021/03/11 12:51:23;;;;;;;4.60;1.30;;;24.00;31.40;;;;;;5092050;28;20556;-73
2021/03/11 12:54:26;;;;;;;1.45;0.30;;;24.00;31.10;;;;;;5092549;28;20028;-72
2021/03/11 12:56:51;;;;;;;1.55;0.45;;;24.00;30.60;;;;;;5092347;28;20115;-73